Time;durP1;ratioP1;P1;durP2;ratioP2;P2;SDS_P1;SDS_P2;PMS_P1;PMS_P2;Temp;Humidity;BMP_temperature;BMP_pressure;BME280_temperature;BME280_humidity;BME280_pressure;Samples;Min_cycle;Max_cycle;Signal;HPM_P1;HPM_P2
2022/10/03 00:00:06;;;;;;;8.13;2.03;;;;;;;16.77;100.00;100548.63;4943300;29;20258;-83
2022/10/03 00:02:46;;;;;;;10.63;2.30;;;;;;;16.71;100.00;100556.63;4940100;29;20035;-82
2022/10/03 00:05:36;;;;;;;5.47;1.52;;;;;;;16.68;100.00;100581.97;4940720;29;20039;-83
2022/10/03 00:08:29;;;;;;;17.00;2.63;;;;;;;16.54;100.00;100574.84;4941463;29;20494;-83
2022/10/03 00:11:49;;;;;;;9.52;2.08;;;;;;;16.48;100.00;100570.31;4941019;29;20063;-83
2022/10/03 00:14:40;;;;;;;7.30;1.92;;;;;;;16.71;100.00;100575.38;4881519;29;20049;-83
2022/10/03 00:17:20;;;;;;;10.30;2.50;;;;;;;16.50;100.00;100587.00;4937478;29;20438;-83
2022/10/03 00:19:57;;;;;;;5.55;1.95;;;;;;;16.32;100.00;100597.41;4938795;29;20050;-83
2022/10/03 00:22:53;;;;;;;8.90;2.55;;;;;;;16.13;100.00;100595.44;4937190;29;20039;-85
2022/10/03 00:25:25;;;;;;;6.70;2.10;;;;;;;16.22;100.00;100602.28;4938538;29;20044;-81
2022/10/03 00:28:08;;;;;;;6.38;2.13;;;;;;;16.06;100.00;100592.72;4937943;29;20035;-84
2022/10/03 00:30:53;;;;;;;;;;;;;;;16.13;100.00;100588.25;4937996;29;20039;-82
2022/10/03 00:33:56;;;;;;;9.18;2.30;;;;;;;16.35;100.00;100591.66;4938310;29;19951;-82
2022/10/03 00:36:33;;;;;;;7.32;2.13;;;;;;;16.47;100.00;100590.88;4930772;29;20082;-84
2022/10/03 00:38:59;;;;;;;6.00;1.88;;;;;;;16.46;100.00;100609.81;4938682;29;20071;-83
2022/10/03 00:41:41;;;;;;;9.45;2.28;;;;;;;16.42;100.00;100605.88;4938173;29;20067;-83
2022/10/03 00:44:20;;;;;;;13.82;2.55;;;;;;;16.40;100.00;100607.94;4936403;29;20040;-84
2022/10/03 00:46:57;;;;;;;8.77;1.63;;;;;;;16.57;100.00;100603.97;4937985;29;20050;-85
2022/10/03 00:49:37;;;;;;;8.43;2.10;;;;;;;16.48;100.00;100610.44;4937700;29;20084;-83
2022/10/03 00:52:28;;;;;;;6.00;1.90;;;;;;;16.39;100.00;100600.94;4937559;29;20036;-83
2022/10/03 00:55:21;;;;;;;9.50;1.95;;;;;;;16.45;100.00;100613.50;4939672;29;20512;-83
2022/10/03 00:58:05;;;;;;;10.20;2.40;;;;;;;16.37;100.00;100616.38;4937747;29;20044;-83
2022/10/03 01:00:32;;;;;;;9.70;1.92;;;;;;;16.28;100.00;100612.19;4937899;29;20430;-84
2022/10/03 01:03:16;;;;;;;9.73;2.42;;;;;;;16.48;100.00;100613.13;4937677;29;20039;-84
2022/10/03 01:06:03;;;;;;;8.90;2.92;;;;;;;16.62;100.00;100636.28;4937057;29;20453;-84
2022/10/03 01:08:55;;;;;;;10.38;2.35;;;;;;;16.71;100.00;100635.09;4937526;29;20128;-87
2022/10/03 01:11:39;;;;;;;7.35;2.30;;;;;;;16.71;100.00;100627.06;4937064;29;20082;-85
2022/10/03 01:14:30;;;;;;;6.32;1.88;;;;;;;16.74;100.00;100634.69;4937117;29;20039;-84
2022/10/03 01:17:18;;;;;;;13.20;2.10;;;;;;;16.63;100.00;100635.25;4937404;29;20123;-85
2022/10/03 01:19:52;;;;;;;7.90;2.15;;;;;;;16.50;100.00;100627.94;4937523;29;20126;-84
2022/10/03 01:22:55;;;;;;;9.40;2.03;;;;;;;16.15;100.00;100634.31;4939183;29;20142;-83
2022/10/03 01:25:39;;;;;;;;;;;;;;;15.94;100.00;100637.88;4937602;29;20055;-83
2022/10/03 01:32:02;;;;;;;4.20;1.80;;;;;;;15.94;100.00;100632.50;4897188;29;20083;-83
2022/10/03 01:35:09;;;;;;;10.35;2.00;;;;;;;15.69;100.00;100639.31;4936914;29;20036;-84
2022/10/03 01:37:34;;;;;;;7.05;1.60;;;;;;;15.81;100.00;100643.09;4936895;29;20055;-83
2022/10/03 01:40:07;;;;;;;8.52;2.00;;;;;;;15.76;100.00;100650.88;4937234;29;20031;-81
2022/10/03 01:43:03;;;;;;;10.50;2.17;;;;;;;15.78;100.00;100658.69;4939436;29;20123;-84
2022/10/03 01:46:02;;;;;;;10.25;2.10;;;;;;;15.73;100.00;100645.94;4950787;29;20035;-84
2022/10/03 01:48:33;;;;;;;9.13;1.77;;;;;;;15.69;100.00;100647.31;4959994;28;20051;-83
2022/10/03 01:51:10;;;;;;;10.15;2.13;;;;;;;15.51;100.00;100641.63;4954066;29;20430;-83
2022/10/03 01:54:01;;;;;;;8.05;1.90;;;;;;;15.50;100.00;100645.31;4936697;29;20114;-82
2022/10/03 01:57:01;;;;;;;13.45;1.90;;;;;;;15.52;100.00;100648.59;4936334;29;20074;-84
2022/10/03 02:00:13;;;;;;;5.53;1.90;;;;;;;15.42;100.00;100648.06;4936764;29;20401;-84
2022/10/03 02:03:03;;;;;;;5.35;1.90;;;;;;;15.46;100.00;100649.34;4931603;29;20473;-83
2022/10/03 02:05:53;;;;;;;10.55;2.28;;;;;;;15.64;100.00;100652.44;4936481;29;20131;-83
2022/10/03 02:08:49;;;;;;;4.68;1.80;;;;;;;15.63;100.00;100642.75;4934968;29;20490;-84
2022/10/03 02:11:34;;;;;;;8.85;2.28;;;;;;;15.70;100.00;100640.97;4936521;29;20036;-85
2022/10/03 02:14:20;;;;;;;12.35;2.58;;;;;;;15.58;100.00;100652.38;4936293;29;20042;-88
2022/10/03 02:16:58;;;;;;;9.13;2.00;;;;;;;15.42;100.00;100648.88;4937002;29;20043;-84
2022/10/03 02:19:49;;;;;;;11.70;1.75;;;;;;;15.54;100.00;100657.28;4938210;29;20042;-84
2022/10/03 02:22:37;;;;;;;11.05;1.92;;;;;;;15.37;100.00;100658.50;4937918;29;20036;-83
2022/10/03 02:25:25;;;;;;;8.60;1.92;;;;;;;15.43;100.00;100666.56;4938715;29;20027;-85
2022/10/03 02:28:22;;;;;;;9.55;2.30;;;;;;;15.27;100.00;100660.66;4938460;29;20063;-85
2022/10/03 02:31:28;;;;;;;10.05;2.60;;;;;;;15.31;100.00;100652.06;4945993;29;20032;-83
2022/10/03 02:34:31;;;;;;;8.27;2.40;;;;;;;15.29;100.00;100663.94;4949964;29;20040;-84
2022/10/03 02:37:05;;;;;;;8.95;2.42;;;;;;;15.21;100.00;100666.75;4948715;28;20055;-83
2022/10/03 02:40:09;;;;;;;14.27;2.03;;;;;;;15.08;100.00;100664.72;4949683;28;20119;-84
2022/10/03 02:43:14;;;;;;;10.55;2.33;;;;;;;15.08;100.00;100664.72;4949528;28;20115;-84
2022/10/03 02:46:01;;;;;;;8.75;2.00;;;;;;;15.16;100.00;100663.78;4907753;29;20115;-84
2022/10/03 02:49:20;;;;;;;8.95;2.10;;;;;;;15.26;100.00;100667.00;4938621;29;20035;-84
2022/10/03 02:52:09;;;;;;;6.65;2.15;;;;;;;15.15;100.00;100672.81;4861480;29;20478;-84
2022/10/03 02:55:00;;;;;;;10.98;2.38;;;;;;;15.30;100.00;100692.31;4934036;29;20178;-86
2022/10/03 02:57:31;;;;;;;10.30;2.45;;;;;;;15.27;100.00;100687.34;4935845;29;20494;-83
2022/10/03 03:00:11;;;;;;;6.90;1.90;;;;;;;15.36;100.00;100679.03;4935934;29;20032;-83
2022/10/03 03:03:27;;;;;;;13.18;2.47;;;;;;;14.97;100.00;100681.25;4935500;29;20032;-84
2022/10/03 03:06:05;;;;;;;8.63;2.17;;;;;;;14.89;100.00;100684.84;4840099;29;20049;-85
2022/10/03 03:09:00;;;;;;;12.68;2.90;;;;;;;15.02;100.00;100695.69;4840508;29;20046;-84
2022/10/03 03:12:03;;;;;;;13.75;2.38;;;;;;;14.92;100.00;100708.47;4824766;29;20054;-85
2022/10/03 03:14:43;;;;;;;12.20;2.33;;;;;;;14.91;100.00;100706.81;4825011;29;20038;-85
2022/10/03 03:17:30;;;;;;;11.48;2.83;;;;;;;14.82;100.00;100707.94;4839857;29;20113;-84
2022/10/03 03:20:27;;;;;;;8.88;2.35;;;;;;;14.76;100.00;100706.00;4839738;29;20065;-85
2022/10/03 03:22:58;;;;;;;11.95;2.53;;;;;;;14.96;100.00;100715.09;4828861;29;20045;-86
2022/10/03 03:25:38;;;;;;;9.27;2.85;;;;;;;15.02;100.00;100710.84;4858287;29;20041;-84
2022/10/03 03:28:27;;;;;;;8.07;2.88;;;;;;;15.12;100.00;100721.25;4858078;29;20034;-84
2022/10/03 03:31:12;;;;;;;6.45;2.33;;;;;;;15.11;100.00;100725.78;4858475;29;20054;-82
2022/10/03 03:34:14;;;;;;;11.38;2.60;;;;;;;15.15;100.00;100728.88;4858357;29;20065;-83
2022/10/03 03:37:07;;;;;;;14.25;3.05;;;;;;;14.95;100.00;100726.78;4896137;29;20091;-84
2022/10/03 03:40:07;;;;;;;10.65;2.88;;;;;;;14.99;100.00;100736.09;4935429;29;20502;-84
2022/10/03 03:42:35;;;;;;;7.35;2.60;;;;;;;15.25;100.00;100732.09;4921999;29;20079;-84
2022/10/03 03:45:13;;;;;;;10.07;2.67;;;;;;;14.92;100.00;100726.31;4935137;29;20032;-85
2022/10/03 03:48:01;;;;;;;14.55;2.80;;;;;;;14.86;100.00;100738.59;4935373;29;20418;-84
2022/10/03 03:50:42;;;;;;;6.82;2.13;;;;;;;14.92;100.00;100748.50;4923580;29;20075;-83
2022/10/03 03:53:11;;;;;;;8.85;2.45;;;;;;;14.85;100.00;100744.91;4936071;29;20028;-83
2022/10/03 03:55:48;;;;;;;16.67;2.80;;;;;;;15.01;100.00;100735.91;4935993;29;20042;-84
2022/10/03 03:58:40;;;;;;;11.80;2.80;;;;;;;14.91;100.00;100744.19;4934155;29;20042;-85
2022/10/03 04:01:06;;;;;;;11.57;2.83;;;;;;;14.85;100.00;100741.41;4935413;29;20039;-83
2022/10/03 04:04:26;;;;;;;7.75;2.40;;;;;;;14.56;100.00;100742.25;4936869;29;20126;-82
2022/10/03 04:07:02;;;;;;;14.25;2.63;;;;;;;14.57;100.00;100743.06;4898031;29;20052;-83
2022/10/03 04:09:43;;;;;;;7.80;2.40;;;;;;;14.71;100.00;100744.94;4938651;29;20032;-83
2022/10/03 04:12:17;;;;;;;17.40;2.90;;;;;;;14.57;100.00;100743.91;4938678;29;20130;-84
2022/10/03 04:15:10;;;;;;;10.48;2.92;;;;;;;14.71;100.00;100745.78;4939386;29;20039;-83
2022/10/03 04:20:58;;;;;;;15.70;3.03;;;;;;;14.75;100.00;100755.03;4942512;29;20087;-85
2022/10/03 04:23:50;;;;;;;13.70;2.78;;;;;;;14.77;100.00;100749.53;4941148;29;20052;-83
2022/10/03 04:26:31;;;;;;;16.95;2.78;;;;;;;14.58;100.00;100750.91;4947864;28;20032;-83
2022/10/03 04:29:21;;;;;;;14.90;3.20;;;;;;;14.43;100.00;100739.38;4962237;28;20028;-81
2022/10/03 04:32:19;;;;;;;10.20;2.75;;;;;;;14.54;100.00;100744.28;4945972;28;20047;-83
2022/10/03 04:35:21;;;;;;;12.70;2.40;;;;;;;14.77;100.00;100750.38;4938206;29;20098;-82
2022/10/03 04:38:12;;;;;;;11.70;2.80;;;;;;;14.68;100.00;100754.09;4937999;29;20044;-83
2022/10/03 04:41:01;;;;;;;13.88;3.58;;;;;;;14.35;100.00;100744.81;4938305;29;20493;-88
2022/10/03 04:43:44;;;;;;;14.88;3.45;;;;;;;14.31;100.00;100751.47;4936872;29;20062;-86
2022/10/03 04:46:22;;;;;;;20.27;4.55;;;;;;;14.43;100.00;100747.38;4938479;29;20036;-84
2022/10/03 04:48:59;;;;;;;17.17;4.05;;;;;;;14.42;100.00;100753.72;4940704;29;20032;-82
2022/10/03 04:51:28;;;;;;;19.60;3.28;;;;;;;14.66;100.00;100748.13;4939256;29;20048;-86
2022/10/03 04:54:03;;;;;;;24.73;4.90;;;;;;;14.71;100.00;100744.94;4938970;29;20036;-85
2022/10/03 04:56:58;;;;;;;32.92;4.55;;;;;;;14.65;100.00;100738.47;4939603;29;20039;-87
2022/10/03 04:59:38;;;;;;;16.92;3.13;;;;;;;14.81;100.00;100745.50;4938411;29;20063;-83
2022/10/03 05:02:13;;;;;;;21.05;4.50;;;;;;;14.71;100.00;100745.78;4936694;29;20043;-88
2022/10/03 05:05:01;;;;;;;14.70;3.70;;;;;;;14.79;100.00;100745.66;4924146;29;20091;-88
2022/10/03 05:07:40;;;;;;;13.18;3.40;;;;;;;14.77;100.00;100734.34;4938202;29;20078;-87
2022/10/03 05:10:18;;;;;;;17.92;3.72;;;;;;;14.69;100.00;100745.09;4938104;29;20040;-87
2022/10/03 05:12:58;;;;;;;12.48;3.97;;;;;;;14.90;100.00;100739.88;4918162;29;20042;-85
2022/10/03 05:15:29;;;;;;;13.80;3.90;;;;;;;14.85;100.00;100742.25;4935871;29;20042;-86
2022/10/03 05:18:14;;;;;;;19.60;4.97;;;;;;;14.70;100.00;100744.09;4920620;29;20039;-85
2022/10/03 05:20:54;;;;;;;17.58;4.35;;;;;;;14.73;100.00;100749.06;4937143;29;20043;-85
2022/10/03 05:24:01;;;;;;;12.40;3.83;;;;;;;14.73;100.00;100753.56;4937786;29;20039;-84
2022/10/03 05:26:45;;;;;;;18.08;4.25;;;;;;;14.61;100.00;100747.88;4937363;29;20118;-85
2022/10/03 05:29:26;;;;;;;10.73;3.67;;;;;;;14.72;100.00;100758.06;4946763;29;20043;-86
2022/10/03 05:32:05;;;;;;;15.77;4.00;;;;;;;14.57;100.00;100754.56;4938509;29;20583;-87
2022/10/03 05:35:21;;;;;;;18.08;5.18;;;;;;;14.43;100.00;100758.88;4936801;29;20031;-88
2022/10/03 05:38:26;;;;;;;17.45;4.55;;;;;;;14.51;100.00;100757.97;4859976;29;20412;-86
2022/10/03 05:41:09;;;;;;;20.02;4.15;;;;;;;14.66;100.00;100752.66;4937022;29;20051;-85
2022/10/03 05:43:49;;;;;;;15.95;4.20;;;;;;;14.77;100.00;100761.03;4936363;29;20510;-88
2022/10/03 05:46:45;;;;;;;15.48;4.60;;;;;;;15.11;100.00;100756.97;4919768;29;20489;-87
2022/10/03 05:49:22;;;;;;;21.02;4.50;;;;;;;15.32;100.00;100754.34;4938953;29;20075;-86
2022/10/03 05:52:15;;;;;;;21.60;4.50;;;;;;;15.58;100.00;100752.03;4937739;29;20035;-87
2022/10/03 05:55:06;;;;;;;;;;;;;;;15.86;100.00;100762.81;4936337;29;20043;-86
2022/10/03 05:58:09;;;;;;;16.15;4.13;;;;;;;15.78;100.00;100765.59;4858509;29;20353;-83
2022/10/03 06:00:49;;;;;;;19.15;3.65;;;;;;;16.45;100.00;100771.34;4861000;29;20045;-85
2022/10/03 06:03:54;;;;;;;19.33;3.88;;;;;;;17.20;100.00;100781.34;4862986;29;20539;-86
2022/10/03 06:06:41;;;;;;;19.20;3.63;;;;;;;17.35;100.00;100782.03;4859398;29;20065;-86
2022/10/03 06:09:36;;;;;;;15.93;3.53;;;;;;;18.14;100.00;100787.63;4916584;29;20070;-87
2022/10/03 06:12:24;;;;;;;20.00;4.05;;;;;;;17.54;100.00;100782.09;4936347;29;20505;-85
2022/10/03 06:15:06;;;;;;;14.20;3.33;;;;;;;18.34;100.00;100772.38;4937015;29;20060;-86
2022/10/03 06:17:41;;;;;;;19.10;3.63;;;;;;;18.88;100.00;100781.03;4935774;29;20051;-87
2022/10/03 06:20:47;;;;;;;16.67;3.55;;;;;;;18.98;100.00;100784.13;4913952;29;20036;-86
2022/10/03 06:23:34;;;;;;;24.73;3.95;;;;;;;19.99;100.00;100790.50;4915623;29;20055;-86
2022/10/03 06:26:02;;;;;;;12.90;2.78;;;;;;;20.93;100.00;100792.25;4935169;28;20035;-89
2022/10/03 06:28:37;;;;;;;19.42;3.00;;;;;;;21.06;100.00;100797.50;4930399;29;20031;-88
2022/10/03 06:31:39;;;;;;;19.70;3.13;;;;;;;20.70;100.00;100803.66;4915960;29;20115;-88
2022/10/03 06:34:43;;;;;;;12.70;2.88;;;;;;;21.87;100.00;100811.47;4931530;29;20040;-88
2022/10/03 06:37:15;;;;;;;;;;;;;;;22.67;96.02;100809.22;4961653;29;20054;-85
2022/10/03 06:40:11;;;;;;;11.90;3.10;;;;;;;21.73;100.00;100814.56;4940188;29;19918;-86
2022/10/03 06:42:43;;;;;;;14.32;3.20;;;;;;;20.90;100.00;100815.06;4919144;29;20477;-88
2022/10/03 06:45:23;;;;;;;16.20;3.42;;;;;;;21.06;100.00;100809.09;4936739;29;20040;-88
2022/10/03 06:48:26;;;;;;;18.30;3.40;;;;;;;20.93;100.00;100795.78;4938211;29;20060;-88
2022/10/03 06:51:06;;;;;;;18.35;2.75;;;;;;;22.81;100.00;100801.69;4926265;29;20047;-88
2022/10/03 06:54:00;;;;;;;12.73;2.90;;;;;;;23.93;90.22;100811.94;4952276;29;20046;-88
2022/10/03 06:56:53;;;;;;;19.92;3.40;;;;;;;23.74;91.68;100826.72;4952444;29;20022;-88
2022/10/03 06:59:31;;;;;;;15.65;2.58;;;;;;;23.35;93.78;100819.41;4956014;29;20031;-87
2022/10/03 07:02:34;;;;;;;15.40;3.20;;;;;;;21.92;100.00;100830.50;4956672;29;20039;-85
2022/10/03 07:05:35;;;;;;;18.52;2.72;;;;;;;21.62;100.00;100824.25;4960142;29;20047;-85
2022/10/03 07:08:16;;;;;;;11.13;2.83;;;;;;;22.68;100.00;100818.97;4960208;29;20032;-86
2022/10/03 07:10:59;;;;;;;13.05;3.75;;;;;;;22.46;100.00;100818.69;4948240;29;20138;-87
2022/10/03 07:13:49;;;;;;;16.17;3.50;;;;;;;23.16;99.85;100824.16;4933690;29;20027;-86
2022/10/03 07:16:33;;;;;;;18.10;3.75;;;;;;;23.37;98.58;100819.97;4955567;29;20024;-85
2022/10/03 07:19:19;;;;;;;20.98;4.38;;;;;;;23.93;95.95;100822.75;4926609;29;20043;-88
2022/10/03 07:22:22;;;;;;;18.20;4.38;;;;;;;24.42;91.07;100825.84;4938864;29;20067;-88
2022/10/03 07:25:13;;;;;;;24.85;6.85;;;;;;;23.30;98.53;100822.00;4954036;29;20035;-87
2022/10/03 07:27:54;;;;;;;28.63;5.75;;;;;;;23.16;100.00;100822.28;4954464;29;20433;-86
2022/10/03 07:30:44;;;;;;;20.48;5.97;;;;;;;24.53;95.18;100827.63;4937344;29;20039;-85
2022/10/03 07:33:54;;;;;;;22.40;5.72;;;;;;;25.43;86.35;100839.03;4934844;29;20048;-83
2022/10/03 07:39:49;;;;;;;16.98;4.75;;;;;;;25.23;85.40;100844.19;4940414;29;20098;-86
2022/10/03 07:42:32;;;;;;;17.73;4.43;;;;;;;24.86;87.00;100854.75;4940972;29;20090;-86
2022/10/03 07:45:36;;;;;;;17.00;4.85;;;;;;;25.56;83.13;100859.56;4934210;29;20088;-84
2022/10/03 07:48:32;;;;;;;18.73;5.05;;;;;;;25.19;85.56;100862.84;4962333;29;20081;-86
2022/10/03 07:51:38;;;;;;;21.30;4.38;;;;;;;25.28;84.02;100857.00;4943168;29;20072;-87
2022/10/03 07:54:16;;;;;;;13.70;3.63;;;;;;;24.86;85.93;100860.19;4959925;29;20043;-84
2022/10/03 07:56:53;;;;;;;13.63;3.42;;;;;;;24.99;86.03;100867.19;4954046;29;20043;-85
2022/10/03 07:59:41;;;;;;;17.55;3.78;;;;;;;25.08;84.77;100869.22;4952399;29;20500;-84
2022/10/03 08:02:42;;;;;;;20.58;4.00;;;;;;;25.57;83.40;100877.50;4939099;29;20130;-87
2022/10/03 08:05:42;;;;;;;19.45;3.15;;;;;;;25.33;84.76;100870.63;4938713;29;20051;-86
2022/10/03 08:08:52;;;;;;;16.75;3.08;;;;;;;25.86;83.57;100873.53;4938917;29;20123;-85
2022/10/03 08:11:59;;;;;;;12.50;3.03;;;;;;;27.32;77.03;100874.03;4951586;29;20099;-85
2022/10/03 08:14:41;;;;;;;17.17;3.10;;;;;;;27.53;73.41;100875.81;4874736;29;20552;-83
2022/10/03 08:17:28;;;;;;;13.02;2.72;;;;;;;27.34;74.12;100868.31;4866298;29;20153;-85
2022/10/03 08:20:24;;;;;;;19.88;3.10;;;;;;;26.68;74.74;100873.31;4865229;29;20061;-86
2022/10/03 08:23:07;;;;;;;17.92;3.28;;;;;;;26.18;77.92;100884.53;4878173;29;20079;-88
2022/10/03 08:25:45;;;;;;;17.02;2.90;;;;;;;25.93;79.42;100892.34;4867644;29;20053;-87
2022/10/03 08:28:37;;;;;;;20.00;3.17;;;;;;;25.76;80.78;100892.41;4876280;29;20064;-85
2022/10/03 08:31:03;;;;;;;17.83;3.97;;;;;;;26.40;77.98;100892.59;4877494;29;20070;-88
2022/10/03 08:33:47;;;;;;;20.58;3.70;;;;;;;26.07;78.79;100894.41;4870236;29;20040;-86
2022/10/03 08:36:27;;;;;;;13.18;2.97;;;;;;;26.57;77.34;100887.88;4871573;29;20531;-86
2022/10/03 08:39:10;;;;;;;17.80;3.72;;;;;;;25.88;80.84;100886.88;4860796;29;20053;-86
2022/10/03 08:41:54;;;;;;;14.23;3.47;;;;;;;26.18;79.60;100882.59;4830554;29;20052;-87
2022/10/03 08:44:54;;;;;;;20.90;3.40;;;;;;;27.35;73.75;100876.22;4878601;29;20052;-88
2022/10/03 08:47:48;;;;;;;19.95;4.03;;;;;;;26.35;78.24;100884.41;4929944;29;20052;-88
2022/10/03 08:50:32;;;;;;;20.52;4.07;;;;;;;26.23;80.81;100889.16;4919092;29;20036;-88
2022/10/03 08:53:17;;;;;;;24.40;4.85;;;;;;;25.50;83.50;100879.59;4919726;29;20040;-87
2022/10/03 08:56:05;;;;;;;16.75;4.47;;;;;;;25.57;84.39;100874.81;4919155;29;20068;-88
2022/10/03 08:59:06;;;;;;;17.83;4.43;;;;;;;26.37;81.72;100876.81;4921684;29;20047;-86
2022/10/03 09:02:10;;;;;;;14.60;3.90;;;;;;;26.02;81.19;100875.34;4877201;29;20049;-85
2022/10/03 09:05:02;;;;;;;12.57;4.00;;;;;;;26.53;77.97;100881.31;4899292;29;20107;-86
2022/10/03 09:07:36;;;;;;;;;;;;;;;26.17;79.94;100883.69;4926728;29;20032;-84
2022/10/03 09:10:41;;;;;;;24.35;4.50;;;;;;;26.76;78.34;100882.84;4902527;29;19923;-85
2022/10/03 09:13:34;;;;;;;20.02;4.55;;;;;;;26.42;81.45;100876.84;4916727;29;20052;-86
2022/10/03 09:16:12;;;;;;;15.18;5.18;;;;;;;26.02;82.92;100879.94;4930723;29;20044;-85
2022/10/03 09:19:19;;;;;;;15.25;4.57;;;;;;;26.59;79.24;100880.28;4931237;29;20119;-85
2022/10/03 09:22:03;;;;;;;19.33;6.25;;;;;;;26.46;79.16;100881.53;4897096;29;20052;-85
2022/10/03 09:24:40;;;;;;;15.40;5.38;;;;;;;27.24;77.54;100872.59;4931021;29;20115;-83
2022/10/03 09:27:35;;;;;;;17.88;5.20;;;;;;;27.00;80.02;100873.28;4932084;29;20032;-84
2022/10/03 09:30:09;;;;;;;16.40;5.47;;;;;;;27.46;73.96;100886.13;4932300;29;20178;-82
2022/10/03 09:33:13;;;;;;;19.17;5.50;;;;;;;27.31;76.02;100882.47;4921079;29;20044;-85
2022/10/03 09:35:48;;;;;;;16.05;4.68;;;;;;;27.68;71.87;100885.94;4918964;29;20107;-86
2022/10/03 09:38:39;;;;;;;21.65;5.60;;;;;;;27.37;74.05;100881.41;4904792;29;20589;-86
2022/10/03 09:41:28;;;;;;;19.88;5.28;;;;;;;27.55;71.88;100875.53;4921239;29;20397;-85
2022/10/03 09:44:12;;;;;;;18.27;5.72;;;;;;;28.15;69.06;100883.13;4930952;29;20064;-85
2022/10/03 09:46:43;;;;;;;22.25;5.20;;;;;;;29.10;65.55;100890.53;4930346;29;20092;-83
2022/10/03 09:49:41;;;;;;;15.63;4.38;;;;;;;28.37;67.73;100885.63;4928212;29;20051;-84
2022/10/03 09:52:10;;;;;;;13.15;3.88;;;;;;;27.94;69.15;100884.13;4891836;29;20047;-87
2022/10/03 09:54:43;;;;;;;19.27;4.53;;;;;;;27.98;68.29;100877.88;4933896;29;20052;-83
2022/10/03 09:57:37;;;;;;;15.63;4.50;;;;;;;28.83;63.86;100884.59;4936343;29;20064;-84
2022/10/03 10:00:21;;;;;;;12.10;4.05;;;;;;;29.07;63.54;100880.16;4901061;29;20538;-86
2022/10/03 10:03:07;;;;;;;10.20;3.40;;;;;;;28.73;64.53;100876.41;4917785;29;20037;-87
2022/10/03 10:05:56;;;;;;;13.57;4.47;;;;;;;28.87;64.00;100871.22;4888060;29;20050;-84
2022/10/03 10:08:32;;;;;;;16.33;3.85;;;;;;;29.31;61.96;100868.69;4918018;29;20036;-87
2022/10/03 10:11:19;;;;;;;16.60;4.45;;;;;;;29.33;61.44;100872.78;4919886;29;20031;-84
2022/10/03 10:14:08;;;;;;;18.75;4.43;;;;;;;28.69;64.37;100872.59;4926549;29;20032;-85
2022/10/03 10:16:52;;;;;;;11.98;4.32;;;;;;;28.36;65.96;100868.44;4868289;29;20068;-86
2022/10/03 10:19:33;;;;;;;15.55;4.40;;;;;;;28.69;65.81;100864.41;4868242;29;20038;-87
2022/10/03 10:22:25;;;;;;;20.42;6.65;;;;;;;28.97;64.11;100865.75;4869944;29;20081;-85
2022/10/03 10:25:31;;;;;;;17.75;4.93;;;;;;;28.49;66.33;100867.09;4845663;29;20049;-86
2022/10/03 10:28:28;;;;;;;16.60;5.50;;;;;;;29.38;64.18;100863.75;4832290;29;20424;-87
2022/10/03 10:31:15;;;;;;;19.60;5.25;;;;;;;30.10;60.13;100871.34;4848655;29;20054;-84
2022/10/03 10:33:58;;;;;;;34.30;7.85;;;;;;;30.38;58.54;100873.38;4833426;29;20065;-84
2022/10/03 10:36:45;;;;;;;13.68;5.25;;;;;;;30.08;59.62;100868.91;4847844;29;20049;-86
2022/10/03 10:39:44;;;;;;;18.17;5.05;;;;;;;29.48;61.55;100863.72;4896633;29;20059;-88
2022/10/03 10:42:45;;;;;;;20.30;4.65;;;;;;;29.67;61.17;100853.78;4908983;29;20043;-85
2022/10/03 10:45:37;;;;;;;16.63;4.88;;;;;;;29.72;59.95;100854.59;4904843;29;20082;-88
2022/10/03 10:48:12;;;;;;;17.20;4.63;;;;;;;29.97;59.15;100855.59;4917022;29;20036;-85
2022/10/03 10:51:23;;;;;;;12.98;3.88;;;;;;;29.65;59.37;100854.09;4921494;29;20028;-85
2022/10/03 10:54:11;;;;;;;11.60;3.17;;;;;;;29.81;53.48;100845.81;4927958;29;20032;-89
2022/10/03 10:56:55;;;;;;;14.30;4.50;;;;;;;29.92;53.47;100848.25;4918572;29;20064;-90
2022/10/03 10:59:42;;;;;;;17.65;4.85;;;;;;;30.16;52.63;100846.44;4918845;29;20033;-87
2022/10/03 11:02:38;;;;;;;13.82;4.07;;;;;;;30.00;52.71;100833.97;4918457;29;20491;-86
2022/10/03 11:05:41;;;;;;;14.75;4.25;;;;;;;29.89;52.67;100832.41;4899920;29;20127;-86
2022/10/03 11:08:53;;;;;;;19.15;4.50;;;;;;;28.46;58.01;100824.00;4924229;29;20040;-85
2022/10/03 11:11:56;;;;;;;11.73;3.63;;;;;;;29.74;53.68;100836.00;4920767;29;20060;-86
2022/10/03 11:14:51;;;;;;;9.93;3.85;;;;;;;29.75;53.73;100829.44;4927043;29;20047;-86
2022/10/03 11:17:31;;;;;;;19.58;4.20;;;;;;;29.77;54.46;100827.25;4917485;29;20044;-89
2022/10/03 11:24:21;;;;;;;19.98;3.90;;;;;;;29.15;55.72;100813.28;4944871;29;20070;-91
2022/10/03 11:27:17;;;;;;;14.52;4.47;;;;;;;29.85;53.96;100814.13;4928776;29;20032;-90
2022/10/03 11:29:43;;;;;;;13.05;4.15;;;;;;;30.42;51.89;100813.47;4944793;29;20051;-88
2022/10/03 11:32:45;;;;;;;18.58;4.85;;;;;;;30.53;51.46;100810.34;4943972;29;20039;-89
2022/10/03 11:35:22;;;;;;;19.88;4.72;;;;;;;30.36;51.50;100798.97;4941115;29;20391;-90
2022/10/03 11:38:04;;;;;;;12.70;4.15;;;;;;;30.34;51.28;100811.31;4925862;29;20032;-87
2022/10/03 11:40:48;;;;;;;11.10;3.72;;;;;;;30.56;50.14;100801.56;4934828;29;20039;-86
2022/10/03 11:43:26;;;;;;;13.93;4.13;;;;;;;29.94;52.78;100796.84;4913816;29;20712;-89
2022/10/03 11:46:25;;;;;;;15.07;4.20;;;;;;;30.26;51.00;100799.88;4921556;29;20040;-88
2022/10/03 11:49:12;;;;;;;17.85;3.80;;;;;;;31.36;47.34;100799.06;4925303;29;20076;-87
2022/10/03 11:51:44;;;;;;;13.82;3.67;;;;;;;32.64;43.19;100792.28;4915738;29;20040;-88
2022/10/03 11:54:26;;;;;;;11.45;3.75;;;;;;;30.93;47.14;100791.88;4938835;29;20044;-89
2022/10/03 11:57:20;;;;;;;15.03;3.53;;;;;;;29.88;49.44;100787.03;4911929;29;20071;-90
2022/10/03 12:00:04;;;;;;;13.95;3.80;;;;;;;28.98;52.42;100775.41;4907563;29;20824;-90
2022/10/03 12:03:05;;;;;;;11.93;3.60;;;;;;;27.94;54.55;100778.66;4905142;29;20510;-88
2022/10/03 12:09:30;;;;;;;12.30;3.55;;;;;;;26.56;62.70;100766.59;4864189;29;20128;-89
2022/10/03 12:12:26;;;;;;;16.75;4.20;;;;;;;26.44;64.06;100760.53;4864445;29;20066;-88
2022/10/03 12:15:01;;;;;;;18.48;5.68;;;;;;;26.04;64.69;100767.25;4849808;29;20160;-90
2022/10/03 12:17:34;;;;;;;10.73;3.90;;;;;;;25.53;67.81;100759.66;4838584;29;20049;-87
2022/10/03 12:20:09;;;;;;;16.17;4.47;;;;;;;25.33;69.67;100762.09;4863461;29;20169;-89
2022/10/03 12:23:27;;;;;;;12.23;4.03;;;;;;;25.59;68.49;100755.91;4864199;29;20127;-90
2022/10/03 12:25:56;;;;;;;17.08;3.80;;;;;;;25.93;67.21;100757.34;4775818;30;20048;-88
2022/10/03 12:28:34;;;;;;;10.05;3.55;;;;;;;26.06;67.08;100753.41;4785437;30;20039;-86
2022/10/03 12:31:11;;;;;;;23.10;5.38;;;;;;;25.45;69.04;100754.66;4784722;29;20055;-87
2022/10/03 12:33:50;;;;;;;19.13;4.50;;;;;;;25.23;70.42;100751.94;4804644;29;20132;-89
2022/10/03 12:36:31;;;;;;;19.25;4.93;;;;;;;25.18;70.40;100752.72;4840527;29;20053;-89
2022/10/03 12:39:21;;;;;;;17.55;4.32;;;;;;;25.02;72.44;100745.44;4889225;29;20045;-89
2022/10/03 12:42:04;;;;;;;12.77;4.72;;;;;;;25.37;70.34;100741.53;4949732;29;20040;-89
2022/10/03 12:44:47;;;;;;;17.02;5.10;;;;;;;25.07;71.93;100736.56;4955655;28;20035;-89
2022/10/03 12:47:19;;;;;;;18.60;5.65;;;;;;;24.88;72.30;100744.19;4971911;28;20043;-90
2022/10/03 12:50:14;;;;;;;14.43;5.60;;;;;;;24.73;73.22;100738.50;4957343;28;20071;-89
2022/10/03 12:53:05;;;;;;;11.45;4.15;;;;;;;24.62;74.19;100734.03;4941370;29;20035;-87
2022/10/03 12:55:39;;;;;;;16.25;4.63;;;;;;;24.71;74.21;100729.81;4924465;29;20565;-89
2022/10/03 12:58:14;;;;;;;12.82;4.22;;;;;;;24.54;76.03;100726.31;4942872;29;20063;-90
2022/10/03 13:00:59;;;;;;;12.95;4.55;;;;;;;24.85;73.93;100727.59;4921217;29;20042;-86
2022/10/03 13:03:48;;;;;;;13.65;3.97;;;;;;;25.12;71.67;100723.88;4938417;29;20398;-87
2022/10/03 13:06:22;;;;;;;20.50;4.90;;;;;;;24.94;73.08;100726.91;4938447;29;20044;-88